sensor_id;sensor_type;location;lat;lon;timestamp;P1;durP1;ratioP1;P2;durP2;ratioP2
7883;SDS011;3987;51.458;7.238;2023-01-23T00:14:06;29.70;;;20.63;;
7883;SDS011;3987;51.458;7.238;2023-01-23T00:29:07;27.50;;;18.17;;
7883;SDS011;3987;51.458;7.238;2023-01-23T00:44:07;28.17;;;18.93;;
7883;SDS011;3987;51.458;7.238;2023-01-23T00:59:07;31.53;;;19.53;;
7883;SDS011;3987;51.458;7.238;2023-01-23T01:14:08;26.30;;;18.73;;
7883;SDS011;3987;51.458;7.238;2023-01-23T01:29:09;25.95;;;18.25;;
7883;SDS011;3987;51.458;7.238;2023-01-23T01:44:19;22.53;;;17.27;;
7883;SDS011;3987;51.458;7.238;2023-01-23T01:59:22;24.70;;;17.50;;
7883;SDS011;3987;51.458;7.238;2023-01-23T02:14:24;23.73;;;17.83;;
7883;SDS011;3987;51.458;7.238;2023-01-23T02:29:25;24.07;;;17.37;;
7883;SDS011;3987;51.458;7.238;2023-01-23T02:44:29;29.83;;;19.03;;
7883;SDS011;3987;51.458;7.238;2023-01-23T02:59:36;33.40;;;19.93;;
7883;SDS011;3987;51.458;7.238;2023-01-23T03:14:58;32.63;;;20.40;;
7883;SDS011;3987;51.458;7.238;2023-01-23T03:29:58;28.03;;;19.43;;
7883;SDS011;3987;51.458;7.238;2023-01-23T03:45:21;33.77;;;19.30;;
7883;SDS011;3987;51.458;7.238;2023-01-23T04:00:21;29.00;;;19.97;;
7883;SDS011;3987;51.458;7.238;2023-01-23T04:15:30;27.13;;;19.17;;
7883;SDS011;3987;51.458;7.238;2023-01-23T04:30:36;28.97;;;19.30;;
7883;SDS011;3987;51.458;7.238;2023-01-23T04:45:44;29.63;;;19.40;;
7883;SDS011;3987;51.458;7.238;2023-01-23T05:01:01;28.13;;;19.10;;
7883;SDS011;3987;51.458;7.238;2023-01-23T05:16:06;29.60;;;19.33;;
7883;SDS011;3987;51.458;7.238;2023-01-23T05:31:24;30.60;;;19.17;;
7883;SDS011;3987;51.458;7.238;2023-01-23T05:46:44;25.93;;;18.50;;
7883;SDS011;3987;51.458;7.238;2023-01-23T06:01:46;23.77;;;17.00;;
7883;SDS011;3987;51.458;7.238;2023-01-23T06:17:05;29.93;;;19.33;;
7883;SDS011;3987;51.458;7.238;2023-01-23T06:32:06;31.70;;;19.27;;
7883;SDS011;3987;51.458;7.238;2023-01-23T06:47:08;31.10;;;19.43;;
7883;SDS011;3987;51.458;7.238;2023-01-23T07:02:12;46.42;;;27.20;;
7883;SDS011;3987;51.458;7.238;2023-01-23T07:17:18;33.27;;;21.77;;
7883;SDS011;3987;51.458;7.238;2023-01-23T07:32:18;38.90;;;23.57;;
7883;SDS011;3987;51.458;7.238;2023-01-23T07:47:18;32.63;;;20.10;;
7883;SDS011;3987;51.458;7.238;2023-01-23T08:02:19;30.97;;;19.57;;
7883;SDS011;3987;51.458;7.238;2023-01-23T08:17:19;25.40;;;17.30;;
7883;SDS011;3987;51.458;7.238;2023-01-23T08:32:20;25.50;;;16.77;;
7883;SDS011;3987;51.458;7.238;2023-01-23T08:47:20;23.80;;;17.40;;
7883;SDS011;3987;51.458;7.238;2023-01-23T09:02:21;21.60;;;15.43;;
7883;SDS011;3987;51.458;7.238;2023-01-23T09:17:21;41.50;;;22.03;;
7883;SDS011;3987;51.458;7.238;2023-01-23T09:32:22;20.50;;;15.23;;
7883;SDS011;3987;51.458;7.238;2023-01-23T09:47:25;20.10;;;14.50;;
7883;SDS011;3987;51.458;7.238;2023-01-23T10:02:30;18.57;;;14.53;;
7883;SDS011;3987;51.458;7.238;2023-01-23T10:17:40;17.90;;;14.13;;
7883;SDS011;3987;51.458;7.238;2023-01-23T10:32:58;16.13;;;13.13;;
7883;SDS011;3987;51.458;7.238;2023-01-23T10:48:28;13.17;;;11.50;;
7883;SDS011;3987;51.458;7.238;2023-01-23T11:03:40;10.63;;;9.57;;
7883;SDS011;3987;51.458;7.238;2023-01-23T11:34:11;12.20;;;11.00;;
7883;SDS011;3987;51.458;7.238;2023-01-23T12:51:01;14.47;;;12.63;;
7883;SDS011;3987;51.458;7.238;2023-01-23T13:21:25;17.17;;;14.23;;
7883;SDS011;3987;51.458;7.238;2023-01-23T13:36:47;19.20;;;14.70;;
7883;SDS011;3987;51.458;7.238;2023-01-23T13:51:48;19.20;;;15.17;;
7883;SDS011;3987;51.458;7.238;2023-01-23T14:06:49;17.27;;;13.90;;
7883;SDS011;3987;51.458;7.238;2023-01-23T14:21:50;16.80;;;13.47;;
7883;SDS011;3987;51.458;7.238;2023-01-23T14:37:00;12.23;;;11.13;;
7883;SDS011;3987;51.458;7.238;2023-01-23T14:52:05;11.30;;;10.40;;
7883;SDS011;3987;51.458;7.238;2023-01-23T15:07:11;13.87;;;12.50;;
7883;SDS011;3987;51.458;7.238;2023-01-23T15:52:24;13.23;;;11.90;;
7883;SDS011;3987;51.458;7.238;2023-01-23T16:07:29;13.30;;;11.90;;
7883;SDS011;3987;51.458;7.238;2023-01-23T16:22:33;11.73;;;10.70;;
7883;SDS011;3987;51.458;7.238;2023-01-23T16:37:34;14.60;;;13.17;;
7883;SDS011;3987;51.458;7.238;2023-01-23T16:52:35;15.60;;;14.03;;
7883;SDS011;3987;51.458;7.238;2023-01-23T17:07:36;12.37;;;11.27;;
7883;SDS011;3987;51.458;7.238;2023-01-23T17:22:37;13.17;;;11.90;;
7883;SDS011;3987;51.458;7.238;2023-01-23T17:37:39;12.20;;;11.10;;
7883;SDS011;3987;51.458;7.238;2023-01-23T17:52:39;13.23;;;11.93;;
7883;SDS011;3987;51.458;7.238;2023-01-23T18:07:39;15.27;;;13.53;;
7883;SDS011;3987;51.458;7.238;2023-01-23T18:22:40;13.07;;;11.73;;
7883;SDS011;3987;51.458;7.238;2023-01-23T18:38:04;13.50;;;12.23;;
7883;SDS011;3987;51.458;7.238;2023-01-23T19:23:35;16.10;;;14.40;;
7883;SDS011;3987;51.458;7.238;2023-01-23T19:38:38;15.23;;;13.47;;
7883;SDS011;3987;51.458;7.238;2023-01-23T19:53:40;15.67;;;14.00;;
7883;SDS011;3987;51.458;7.238;2023-01-23T20:08:41;14.10;;;12.67;;
7883;SDS011;3987;51.458;7.238;2023-01-23T20:23:41;17.07;;;14.80;;
7883;SDS011;3987;51.458;7.238;2023-01-23T20:38:42;13.23;;;12.03;;
7883;SDS011;3987;51.458;7.238;2023-01-23T20:53:42;15.00;;;13.40;;
7883;SDS011;3987;51.458;7.238;2023-01-23T21:08:43;15.33;;;13.73;;
7883;SDS011;3987;51.458;7.238;2023-01-23T21:23:44;13.98;;;12.57;;
7883;SDS011;3987;51.458;7.238;2023-01-23T21:38:47;15.43;;;13.33;;
7883;SDS011;3987;51.458;7.238;2023-01-23T21:53:48;14.50;;;12.00;;
7883;SDS011;3987;51.458;7.238;2023-01-23T22:08:49;12.13;;;10.90;;
7883;SDS011;3987;51.458;7.238;2023-01-23T22:23:49;13.00;;;11.80;;
7883;SDS011;3987;51.458;7.238;2023-01-23T22:38:50;13.47;;;12.07;;
7883;SDS011;3987;51.458;7.238;2023-01-23T22:53:52;11.57;;;10.37;;
7883;SDS011;3987;51.458;7.238;2023-01-23T23:08:53;12.43;;;11.20;;
7883;SDS011;3987;51.458;7.238;2023-01-23T23:23:54;11.93;;;10.83;;
7883;SDS011;3987;51.458;7.238;2023-01-23T23:38:56;12.27;;;11.03;;
7883;SDS011;3987;51.458;7.238;2023-01-23T23:53:57;12.83;;;11.50;;
